sensor_id;sensor_type;location;lat;lon;timestamp;pressure;altitude;pressure_sealevel;temperature;humidity
69245;BME280;56357;52.304;4.870;2024-01-27T00:00:42;103622.41;;;17.45;52.31
69245;BME280;56357;52.304;4.870;2024-01-27T00:03:09;103622.75;;;17.29;52.20
69245;BME280;56357;52.304;4.870;2024-01-27T00:05:36;103619.97;;;17.29;52.67
69245;BME280;56357;52.304;4.870;2024-01-27T00:08:02;103626.25;;;17.37;52.28
69245;BME280;56357;52.304;4.870;2024-01-27T00:10:28;103622.53;;;17.24;52.59
69245;BME280;56357;52.304;4.870;2024-01-27T00:12:55;103624.69;;;17.22;52.71
69245;BME280;56357;52.304;4.870;2024-01-27T00:15:23;103624.00;;;17.20;52.80
69245;BME280;56357;52.304;4.870;2024-01-27T00:17:49;103625.78;;;17.27;52.34
69245;BME280;56357;52.304;4.870;2024-01-27T00:20:15;103624.47;;;17.23;52.84
69245;BME280;56357;52.304;4.870;2024-01-27T00:22:42;103624.28;;;17.25;52.38
69245;BME280;56357;52.304;4.870;2024-01-27T00:25:08;103621.88;;;17.22;52.50
69245;BME280;56357;52.304;4.870;2024-01-27T00:27:34;103627.91;;;17.19;52.93
69245;BME280;56357;52.304;4.870;2024-01-27T00:30:01;103622.69;;;17.16;52.88
69245;BME280;56357;52.304;4.870;2024-01-27T00:32:27;103621.66;;;17.23;52.32
69245;BME280;56357;52.304;4.870;2024-01-27T00:34:54;103619.69;;;17.17;52.80
69245;BME280;56357;52.304;4.870;2024-01-27T00:37:20;103632.59;;;17.12;52.49
69245;BME280;56357;52.304;4.870;2024-01-27T00:39:46;103616.28;;;17.22;52.61
69245;BME280;56357;52.304;4.870;2024-01-27T00:42:13;103619.94;;;17.22;52.11
69245;BME280;56357;52.304;4.870;2024-01-27T00:44:40;103622.47;;;17.11;52.33
69245;BME280;56357;52.304;4.870;2024-01-27T00:47:06;103621.81;;;17.09;53.07
69245;BME280;56357;52.304;4.870;2024-01-27T00:49:32;103620.53;;;17.11;52.97
69245;BME280;56357;52.304;4.870;2024-01-27T00:51:59;103618.59;;;17.12;52.44
69245;BME280;56357;52.304;4.870;2024-01-27T00:54:25;103622.19;;;16.99;52.35
69245;BME280;56357;52.304;4.870;2024-01-27T00:56:52;103629.72;;;16.99;52.40
69245;BME280;56357;52.304;4.870;2024-01-27T00:59:18;103636.03;;;17.14;52.18
69245;BME280;56357;52.304;4.870;2024-01-27T01:01:45;103633.00;;;17.09;52.79
69245;BME280;56357;52.304;4.870;2024-01-27T01:04:11;103633.00;;;17.09;52.73
69245;BME280;56357;52.304;4.870;2024-01-27T01:06:40;103639.50;;;17.16;52.40
69245;BME280;56357;52.304;4.870;2024-01-27T01:09:07;103647.38;;;16.99;52.73
69245;BME280;56357;52.304;4.870;2024-01-27T01:11:33;103634.25;;;17.00;52.59
69245;BME280;56357;52.304;4.870;2024-01-27T01:14:00;103631.91;;;17.03;52.57
69245;BME280;56357;52.304;4.870;2024-01-27T01:16:26;103640.03;;;16.98;52.39
69245;BME280;56357;52.304;4.870;2024-01-27T01:18:52;103641.56;;;17.01;52.17
69245;BME280;56357;52.304;4.870;2024-01-27T01:21:19;103632.53;;;16.99;52.04
69245;BME280;56357;52.304;4.870;2024-01-27T01:23:45;103638.09;;;16.92;52.70
69245;BME280;56357;52.304;4.870;2024-01-27T01:26:11;103635.03;;;16.87;52.32
69245;BME280;56357;52.304;4.870;2024-01-27T01:28:38;103643.22;;;16.89;52.51
69245;BME280;56357;52.304;4.870;2024-01-27T01:31:06;103629.22;;;16.89;52.69
69245;BME280;56357;52.304;4.870;2024-01-27T01:33:33;103635.25;;;16.86;52.65
69245;BME280;56357;52.304;4.870;2024-01-27T01:35:59;103641.00;;;16.78;52.44
69245;BME280;56357;52.304;4.870;2024-01-27T01:38:26;103628.97;;;16.84;52.46
69245;BME280;56357;52.304;4.870;2024-01-27T01:40:52;103640.03;;;16.92;52.39
69245;BME280;56357;52.304;4.870;2024-01-27T01:43:18;103641.06;;;16.91;51.96
69245;BME280;56357;52.304;4.870;2024-01-27T01:45:45;103637.81;;;16.87;52.24
69245;BME280;56357;52.304;4.870;2024-01-27T01:48:11;103647.03;;;16.81;52.33
69245;BME280;56357;52.304;4.870;2024-01-27T01:50:37;103644.25;;;16.81;52.09
69245;BME280;56357;52.304;4.870;2024-01-27T01:53:05;103644.91;;;16.83;52.51
69245;BME280;56357;52.304;4.870;2024-01-27T01:55:32;103650.84;;;16.74;52.58
69245;BME280;56357;52.304;4.870;2024-01-27T01:57:59;103653.06;;;16.78;52.30
69245;BME280;56357;52.304;4.870;2024-01-27T02:00:25;103655.03;;;16.84;52.39
69245;BME280;56357;52.304;4.870;2024-01-27T02:02:52;103656.97;;;16.84;52.24
69245;BME280;56357;52.304;4.870;2024-01-27T02:05:18;103652.81;;;16.73;52.60
69245;BME280;56357;52.304;4.870;2024-01-27T02:07:45;103648.22;;;16.66;52.80
69245;BME280;56357;52.304;4.870;2024-01-27T02:10:15;103654.00;;;16.58;52.96
69245;BME280;56357;52.304;4.870;2024-01-27T02:12:43;103645.16;;;16.61;52.76
69245;BME280;56357;52.304;4.870;2024-01-27T02:15:10;103638.75;;;16.67;52.39
69245;BME280;56357;52.304;4.870;2024-01-27T02:17:39;103636.53;;;16.56;52.54
69245;BME280;56357;52.304;4.870;2024-01-27T02:20:06;103640.66;;;16.60;52.47
69245;BME280;56357;52.304;4.870;2024-01-27T02:22:34;103642.78;;;16.58;52.78
69245;BME280;56357;52.304;4.870;2024-01-27T02:25:01;103646.50;;;16.65;52.57
69245;BME280;56357;52.304;4.870;2024-01-27T02:27:27;103654.00;;;16.58;52.50
69245;BME280;56357;52.304;4.870;2024-01-27T02:29:54;103656.00;;;16.70;52.25
69245;BME280;56357;52.304;4.870;2024-01-27T02:32:20;103658.81;;;16.70;52.39
69245;BME280;56357;52.304;4.870;2024-01-27T02:34:46;103673.16;;;16.61;52.20
69245;BME280;56357;52.304;4.870;2024-01-27T02:37:13;103666.69;;;16.60;52.73
69245;BME280;56357;52.304;4.870;2024-01-27T02:39:40;103661.09;;;16.60;52.45
69245;BME280;56357;52.304;4.870;2024-01-27T02:42:07;103655.56;;;16.67;52.25
69245;BME280;56357;52.304;4.870;2024-01-27T02:44:33;103662.75;;;16.55;52.23
69245;BME280;56357;52.304;4.870;2024-01-27T02:46:59;103661.91;;;16.54;52.56
69245;BME280;56357;52.304;4.870;2024-01-27T02:49:26;103648.78;;;16.55;52.69
69245;BME280;56357;52.304;4.870;2024-01-27T02:51:52;103651.78;;;16.53;52.38
69245;BME280;56357;52.304;4.870;2024-01-27T02:54:18;103651.13;;;16.51;52.37
69245;BME280;56357;52.304;4.870;2024-01-27T02:56:45;103643.50;;;16.45;52.36
69245;BME280;56357;52.304;4.870;2024-01-27T02:59:11;103658.84;;;16.49;52.49
69245;BME280;56357;52.304;4.870;2024-01-27T03:01:38;103656.31;;;16.54;52.15
69245;BME280;56357;52.304;4.870;2024-01-27T03:04:04;103651.34;;;16.50;52.27
69245;BME280;56357;52.304;4.870;2024-01-27T03:06:31;103646.31;;;16.45;52.72
69245;BME280;56357;52.304;4.870;2024-01-27T03:08:58;103653.78;;;16.38;52.83
69245;BME280;56357;52.304;4.870;2024-01-27T03:11:24;103646.94;;;16.40;52.53
69245;BME280;56357;52.304;4.870;2024-01-27T03:13:50;103642.16;;;16.41;52.57
69245;BME280;56357;52.304;4.870;2024-01-27T03:16:17;103638.25;;;16.35;52.28
69245;BME280;56357;52.304;4.870;2024-01-27T03:18:44;103646.41;;;16.52;52.00
69245;BME280;56357;52.304;4.870;2024-01-27T03:21:11;103638.25;;;16.57;52.30
69245;BME280;56357;52.304;4.870;2024-01-27T03:23:37;103640.19;;;16.56;51.79
69245;BME280;56357;52.304;4.870;2024-01-27T03:26:04;103641.94;;;16.64;51.97
69245;BME280;56357;52.304;4.870;2024-01-27T03:28:30;103641.94;;;16.64;51.51
69245;BME280;56357;52.304;4.870;2024-01-27T03:30:56;103639.16;;;16.42;52.38
69245;BME280;56357;52.304;4.870;2024-01-27T03:33:24;103667.97;;;16.58;52.36
69245;BME280;56357;52.304;4.870;2024-01-27T03:35:51;103669.16;;;16.48;52.59
69245;BME280;56357;52.304;4.870;2024-01-27T03:38:17;103663.44;;;16.57;51.80
69245;BME280;56357;52.304;4.870;2024-01-27T03:40:43;103654.88;;;16.65;51.95
69245;BME280;56357;52.304;4.870;2024-01-27T03:43:10;103662.56;;;16.56;52.25
69245;BME280;56357;52.304;4.870;2024-01-27T03:45:36;103655.75;;;16.65;52.17
69245;BME280;56357;52.304;4.870;2024-01-27T03:48:02;103654.75;;;16.73;52.27
69245;BME280;56357;52.304;4.870;2024-01-27T03:50:29;103672.28;;;16.88;51.71
69245;BME280;56357;52.304;4.870;2024-01-27T03:52:55;103665.50;;;16.69;52.36
69245;BME280;56357;52.304;4.870;2024-01-27T03:55:21;103665.75;;;17.08;51.78
69245;BME280;56357;52.304;4.870;2024-01-27T03:57:48;103654.38;;;16.82;52.26
69245;BME280;56357;52.304;4.870;2024-01-27T04:00:14;103658.69;;;16.85;51.93
69245;BME280;56357;52.304;4.870;2024-01-27T04:02:41;103656.53;;;16.80;52.42
69245;BME280;56357;52.304;4.870;2024-01-27T04:05:07;103647.94;;;17.22;51.37
69245;BME280;56357;52.304;4.870;2024-01-27T04:07:33;103650.34;;;16.91;51.84
69245;BME280;56357;52.304;4.870;2024-01-27T04:10:02;103662.03;;;17.35;51.15
69245;BME280;56357;52.304;4.870;2024-01-27T04:12:29;103659.22;;;17.35;51.33
69245;BME280;56357;52.304;4.870;2024-01-27T04:14:57;103664.50;;;17.17;51.56
69245;BME280;56357;52.304;4.870;2024-01-27T04:17:25;103664.16;;;17.33;51.16
69245;BME280;56357;52.304;4.870;2024-01-27T04:19:51;103657.69;;;17.33;50.84
69245;BME280;56357;52.304;4.870;2024-01-27T04:22:17;103656.31;;;17.57;50.84
69245;BME280;56357;52.304;4.870;2024-01-27T04:24:44;103653.88;;;17.47;50.78
69245;BME280;56357;52.304;4.870;2024-01-27T04:27:10;103657.28;;;17.36;51.19
69245;BME280;56357;52.304;4.870;2024-01-27T04:29:36;103660.97;;;17.43;51.07
69245;BME280;56357;52.304;4.870;2024-01-27T04:32:03;103665.91;;;17.41;51.26
69245;BME280;56357;52.304;4.870;2024-01-27T04:34:31;103662.28;;;17.47;51.22
69245;BME280;56357;52.304;4.870;2024-01-27T04:36:58;103673.59;;;17.26;51.35
69245;BME280;56357;52.304;4.870;2024-01-27T04:39:24;103673.00;;;17.78;50.96
69245;BME280;56357;52.304;4.870;2024-01-27T04:41:50;103678.81;;;17.35;52.11
69245;BME280;56357;52.304;4.870;2024-01-27T04:44:17;103672.47;;;17.48;51.29
69245;BME280;56357;52.304;4.870;2024-01-27T04:46:45;103673.50;;;17.47;51.20
69245;BME280;56357;52.304;4.870;2024-01-27T04:49:12;103676.03;;;17.35;51.56
69245;BME280;56357;52.304;4.870;2024-01-27T04:51:38;103675.91;;;17.50;51.29
69245;BME280;56357;52.304;4.870;2024-01-27T04:54:04;103673.72;;;17.46;51.06
69245;BME280;56357;52.304;4.870;2024-01-27T04:56:31;103670.69;;;17.47;51.55
69245;BME280;56357;52.304;4.870;2024-01-27T04:58:57;103665.97;;;17.48;51.76
69245;BME280;56357;52.304;4.870;2024-01-27T05:01:24;103667.19;;;17.38;51.44
69245;BME280;56357;52.304;4.870;2024-01-27T05:03:50;103672.31;;;17.63;50.77
69245;BME280;56357;52.304;4.870;2024-01-27T05:06:16;103670.41;;;17.76;50.21
69245;BME280;56357;52.304;4.870;2024-01-27T05:08:43;103668.00;;;17.67;51.01
69245;BME280;56357;52.304;4.870;2024-01-27T05:11:10;103656.63;;;17.75;51.09
69245;BME280;56357;52.304;4.870;2024-01-27T05:13:36;103662.53;;;17.52;51.43
69245;BME280;56357;52.304;4.870;2024-01-27T05:16:03;103659.22;;;17.76;50.55
69245;BME280;56357;52.304;4.870;2024-01-27T05:18:30;103662.63;;;17.72;50.61
69245;BME280;56357;52.304;4.870;2024-01-27T05:20:56;103656.38;;;17.63;50.82
69245;BME280;56357;52.304;4.870;2024-01-27T05:23:23;103663.41;;;17.53;51.24
69245;BME280;56357;52.304;4.870;2024-01-27T05:25:49;103666.28;;;17.66;51.34
69245;BME280;56357;52.304;4.870;2024-01-27T05:28:15;103669.56;;;17.89;51.06
69245;BME280;56357;52.304;4.870;2024-01-27T05:30:42;103676.16;;;17.55;50.86
69245;BME280;56357;52.304;4.870;2024-01-27T05:33:08;103675.50;;;17.53;51.53
69245;BME280;56357;52.304;4.870;2024-01-27T05:35:35;103682.91;;;17.74;50.96
69245;BME280;56357;52.304;4.870;2024-01-27T05:38:01;103663.38;;;17.46;51.44
69245;BME280;56357;52.304;4.870;2024-01-27T05:40:28;103669.06;;;17.59;50.76
69245;BME280;56357;52.304;4.870;2024-01-27T05:42:54;103670.63;;;17.81;51.12
69245;BME280;56357;52.304;4.870;2024-01-27T05:45:20;103664.78;;;17.70;51.19
69245;BME280;56357;52.304;4.870;2024-01-27T05:47:47;103656.38;;;17.70;50.85
69245;BME280;56357;52.304;4.870;2024-01-27T05:50:14;103657.91;;;17.72;51.08
69245;BME280;56357;52.304;4.870;2024-01-27T05:52:40;103645.34;;;17.55;51.79
69245;BME280;56357;52.304;4.870;2024-01-27T05:55:07;103640.41;;;17.70;51.20
69245;BME280;56357;52.304;4.870;2024-01-27T05:57:33;103650.94;;;17.55;51.29
69245;BME280;56357;52.304;4.870;2024-01-27T06:00:00;103649.19;;;17.54;51.37
69245;BME280;56357;52.304;4.870;2024-01-27T06:02:26;103663.50;;;17.72;51.04
69245;BME280;56357;52.304;4.870;2024-01-27T06:04:53;103667.44;;;17.44;51.91
69245;BME280;56357;52.304;4.870;2024-01-27T06:07:19;103671.09;;;17.91;50.80
69245;BME280;56357;52.304;4.870;2024-01-27T06:09:46;103663.03;;;17.62;51.60
69245;BME280;56357;52.304;4.870;2024-01-27T06:12:12;103663.97;;;17.89;50.82
69245;BME280;56357;52.304;4.870;2024-01-27T06:14:40;103676.63;;;17.72;50.79
69245;BME280;56357;52.304;4.870;2024-01-27T06:17:06;103685.09;;;17.78;51.40
69245;BME280;56357;52.304;4.870;2024-01-27T06:19:33;103672.16;;;17.84;50.59
69245;BME280;56357;52.304;4.870;2024-01-27T06:21:59;103653.56;;;17.70;50.83
69245;BME280;56357;52.304;4.870;2024-01-27T06:24:26;103654.91;;;17.87;50.70
69245;BME280;56357;52.304;4.870;2024-01-27T06:26:52;103656.06;;;18.05;50.33
69245;BME280;56357;52.304;4.870;2024-01-27T06:29:19;103656.81;;;17.73;51.40
69245;BME280;56357;52.304;4.870;2024-01-27T06:31:45;103658.38;;;17.89;50.78
69245;BME280;56357;52.304;4.870;2024-01-27T06:34:11;103657.28;;;17.77;50.98
69245;BME280;56357;52.304;4.870;2024-01-27T06:36:38;103666.97;;;17.81;50.77
69245;BME280;56357;52.304;4.870;2024-01-27T06:39:04;103655.75;;;17.74;50.88
69245;BME280;56357;52.304;4.870;2024-01-27T06:41:31;103656.25;;;17.97;50.49
69245;BME280;56357;52.304;4.870;2024-01-27T06:43:57;103662.66;;;17.85;51.16
69245;BME280;56357;52.304;4.870;2024-01-27T06:46:23;103659.25;;;17.89;50.97
69245;BME280;56357;52.304;4.870;2024-01-27T06:48:49;103664.28;;;17.60;51.58
69245;BME280;56357;52.304;4.870;2024-01-27T06:51:16;103660.50;;;17.87;50.85
69245;BME280;56357;52.304;4.870;2024-01-27T06:53:42;103661.13;;;17.76;50.94
69245;BME280;56357;52.304;4.870;2024-01-27T06:56:09;103664.63;;;17.84;50.96
69245;BME280;56357;52.304;4.870;2024-01-27T06:58:35;103668.41;;;17.64;51.12
69245;BME280;56357;52.304;4.870;2024-01-27T07:01:01;103665.22;;;17.73;51.20
69245;BME280;56357;52.304;4.870;2024-01-27T07:03:28;103674.56;;;17.93;51.11
69245;BME280;56357;52.304;4.870;2024-01-27T07:05:54;103680.75;;;17.76;51.02
69245;BME280;56357;52.304;4.870;2024-01-27T07:08:20;103669.75;;;17.81;50.51
69245;BME280;56357;52.304;4.870;2024-01-27T07:10:47;103669.28;;;17.58;51.54
69245;BME280;56357;52.304;4.870;2024-01-27T07:13:13;103664.22;;;18.00;50.74
69245;BME280;56357;52.304;4.870;2024-01-27T07:15:40;103673.38;;;17.62;51.07
69245;BME280;56357;52.304;4.870;2024-01-27T07:18:07;103673.56;;;17.54;51.36
69245;BME280;56357;52.304;4.870;2024-01-27T07:20:34;103673.38;;;17.62;51.58
69245;BME280;56357;52.304;4.870;2024-01-27T07:23:00;103673.34;;;17.55;51.46
69245;BME280;56357;52.304;4.870;2024-01-27T07:25:27;103670.63;;;17.75;51.92
69245;BME280;56357;52.304;4.870;2024-01-27T07:27:54;103674.94;;;17.77;51.78
69245;BME280;56357;52.304;4.870;2024-01-27T07:30:21;103676.91;;;17.83;52.12
69245;BME280;56357;52.304;4.870;2024-01-27T07:32:47;103675.88;;;17.97;51.99
69245;BME280;56357;52.304;4.870;2024-01-27T07:35:13;103673.94;;;18.04;50.89
69245;BME280;56357;52.304;4.870;2024-01-27T07:37:40;103679.97;;;18.01;51.15
69245;BME280;56357;52.304;4.870;2024-01-27T07:40:09;103673.69;;;17.86;51.46
69245;BME280;56357;52.304;4.870;2024-01-27T07:42:35;103667.47;;;18.10;50.93
69245;BME280;56357;52.304;4.870;2024-01-27T07:45:02;103662.66;;;17.85;50.67
69245;BME280;56357;52.304;4.870;2024-01-27T07:47:28;103677.16;;;17.88;51.58
69245;BME280;56357;52.304;4.870;2024-01-27T07:49:54;103693.38;;;18.12;51.21
69245;BME280;56357;52.304;4.870;2024-01-27T07:52:21;103695.97;;;18.07;51.16
69245;BME280;56357;52.304;4.870;2024-01-27T07:54:47;103703.09;;;18.16;51.52
69245;BME280;56357;52.304;4.870;2024-01-27T07:57:14;103711.69;;;18.08;51.17
69245;BME280;56357;52.304;4.870;2024-01-27T07:59:40;103707.34;;;17.93;51.20
69245;BME280;56357;52.304;4.870;2024-01-27T08:02:06;103696.31;;;17.78;51.47
69245;BME280;56357;52.304;4.870;2024-01-27T08:04:33;103698.88;;;17.80;51.63
69245;BME280;56357;52.304;4.870;2024-01-27T08:06:59;103700.06;;;18.18;50.72
69245;BME280;56357;52.304;4.870;2024-01-27T08:09:31;103700.06;;;18.11;51.70
69245;BME280;56357;52.304;4.870;2024-01-27T08:11:58;103700.44;;;17.95;51.98
69245;BME280;56357;52.304;4.870;2024-01-27T08:14:24;103690.25;;;18.61;50.79
69245;BME280;56357;52.304;4.870;2024-01-27T08:16:50;103691.06;;;19.01;49.86
69245;BME280;56357;52.304;4.870;2024-01-27T08:19:17;103697.34;;;18.83;50.13
69245;BME280;56357;52.304;4.870;2024-01-27T08:21:46;103691.28;;;18.93;49.79
69245;BME280;56357;52.304;4.870;2024-01-27T08:24:13;103685.06;;;18.52;51.51
69245;BME280;56357;52.304;4.870;2024-01-27T08:26:40;103690.44;;;18.73;50.83
69245;BME280;56357;52.304;4.870;2024-01-27T08:29:07;103688.47;;;18.93;50.54
69245;BME280;56357;52.304;4.870;2024-01-27T08:31:34;103681.78;;;18.48;51.66
69245;BME280;56357;52.304;4.870;2024-01-27T08:34:03;103685.69;;;18.86;50.96
69245;BME280;56357;52.304;4.870;2024-01-27T08:36:29;103689.56;;;18.46;51.60
69245;BME280;56357;52.304;4.870;2024-01-27T08:38:55;103692.16;;;18.87;51.19
69245;BME280;56357;52.304;4.870;2024-01-27T08:41:22;103702.53;;;18.80;51.62
69245;BME280;56357;52.304;4.870;2024-01-27T08:43:49;103697.34;;;18.64;51.66
69245;BME280;56357;52.304;4.870;2024-01-27T08:46:15;103702.09;;;18.57;51.76
69245;BME280;56357;52.304;4.870;2024-01-27T08:48:44;103709.47;;;18.71;51.61
69245;BME280;56357;52.304;4.870;2024-01-27T08:51:11;103709.44;;;18.84;51.05
69245;BME280;56357;52.304;4.870;2024-01-27T08:53:38;103714.22;;;18.77;51.31
69245;BME280;56357;52.304;4.870;2024-01-27T08:56:04;103711.38;;;18.64;51.69
69245;BME280;56357;52.304;4.870;2024-01-27T08:58:31;103704.22;;;18.42;51.74
69245;BME280;56357;52.304;4.870;2024-01-27T09:00:57;103709.44;;;18.64;51.96
69245;BME280;56357;52.304;4.870;2024-01-27T09:03:25;103721.53;;;18.78;51.13
69245;BME280;56357;52.304;4.870;2024-01-27T09:05:51;103716.56;;;18.67;51.38
69245;BME280;56357;52.304;4.870;2024-01-27T09:08:18;103715.94;;;18.78;50.99
69245;BME280;56357;52.304;4.870;2024-01-27T09:10:44;103713.75;;;18.80;51.34
69245;BME280;56357;52.304;4.870;2024-01-27T09:13:10;103720.25;;;18.74;50.99
69245;BME280;56357;52.304;4.870;2024-01-27T09:15:37;103720.66;;;19.03;50.56
69245;BME280;56357;52.304;4.870;2024-01-27T09:18:03;103713.75;;;18.93;51.04
69245;BME280;56357;52.304;4.870;2024-01-27T09:20:30;103715.06;;;18.71;51.62
69245;BME280;56357;52.304;4.870;2024-01-27T09:22:57;103725.38;;;19.09;50.67
69245;BME280;56357;52.304;4.870;2024-01-27T09:25:24;103719.38;;;18.67;50.71
69245;BME280;56357;52.304;4.870;2024-01-27T09:27:53;103730.41;;;18.75;51.42
69245;BME280;56357;52.304;4.870;2024-01-27T09:30:19;103730.97;;;19.42;50.13
69245;BME280;56357;52.304;4.870;2024-01-27T09:32:45;103742.06;;;18.72;51.06
69245;BME280;56357;52.304;4.870;2024-01-27T09:35:12;103747.91;;;18.90;50.74
69245;BME280;56357;52.304;4.870;2024-01-27T09:37:38;103758.25;;;18.70;51.67
69245;BME280;56357;52.304;4.870;2024-01-27T09:40:05;103758.66;;;19.06;50.51
69245;BME280;56357;52.304;4.870;2024-01-27T09:42:33;103756.31;;;18.90;50.88
69245;BME280;56357;52.304;4.870;2024-01-27T09:45:01;103764.53;;;18.91;51.11
69245;BME280;56357;52.304;4.870;2024-01-27T09:47:28;103768.41;;;19.03;51.00
69245;BME280;56357;52.304;4.870;2024-01-27T09:49:55;103767.75;;;18.88;50.88
69245;BME280;56357;52.304;4.870;2024-01-27T09:52:22;103766.66;;;19.22;50.53
69245;BME280;56357;52.304;4.870;2024-01-27T09:54:49;103763.00;;;19.35;50.12
69245;BME280;56357;52.304;4.870;2024-01-27T09:57:15;103752.16;;;19.51;49.62
69245;BME280;56357;52.304;4.870;2024-01-27T09:59:43;103755.66;;;19.40;49.71
69245;BME280;56357;52.304;4.870;2024-01-27T10:02:12;103757.72;;;19.64;49.41
69245;BME280;56357;52.304;4.870;2024-01-27T10:04:41;103769.69;;;19.21;49.78
69245;BME280;56357;52.304;4.870;2024-01-27T10:07:07;103772.75;;;18.99;50.27
69245;BME280;56357;52.304;4.870;2024-01-27T10:09:34;103774.47;;;19.07;50.19
69245;BME280;56357;52.304;4.870;2024-01-27T10:12:01;103781.59;;;19.03;49.64
69245;BME280;56357;52.304;4.870;2024-01-27T10:14:40;103778.97;;;19.28;49.69
69245;BME280;56357;52.304;4.870;2024-01-27T10:17:20;103786.97;;;19.24;49.86
69245;BME280;56357;52.304;4.870;2024-01-27T10:19:46;103784.63;;;19.34;49.56
69245;BME280;56357;52.304;4.870;2024-01-27T10:22:13;103781.56;;;18.96;49.71
69245;BME280;56357;52.304;4.870;2024-01-27T10:24:39;103786.34;;;19.09;49.98
69245;BME280;56357;52.304;4.870;2024-01-27T10:27:06;103782.88;;;19.33;48.32
69245;BME280;56357;52.304;4.870;2024-01-27T10:29:32;103773.78;;;19.57;48.39
69245;BME280;56357;52.304;4.870;2024-01-27T10:32:08;103778.34;;;19.52;49.01
69245;BME280;56357;52.304;4.870;2024-01-27T10:34:35;103778.00;;;19.86;48.21
69245;BME280;56357;52.304;4.870;2024-01-27T10:37:02;103781.47;;;19.81;48.33
69245;BME280;56357;52.304;4.870;2024-01-27T10:39:28;103774.66;;;19.51;49.13
69245;BME280;56357;52.304;4.870;2024-01-27T10:41:54;103763.41;;;19.45;49.31
69245;BME280;56357;52.304;4.870;2024-01-27T10:44:21;103775.06;;;19.48;49.87
69245;BME280;56357;52.304;4.870;2024-01-27T10:46:48;103763.34;;;19.71;49.38
69245;BME280;56357;52.304;4.870;2024-01-27T10:49:16;103770.47;;;19.73;49.27
69245;BME280;56357;52.304;4.870;2024-01-27T10:51:44;103770.72;;;19.59;49.62
69245;BME280;56357;52.304;4.870;2024-01-27T10:54:24;103777.53;;;19.95;49.00
69245;BME280;56357;52.304;4.870;2024-01-27T10:56:51;103773.28;;;19.73;49.48
69245;BME280;56357;52.304;4.870;2024-01-27T10:59:19;103766.34;;;19.76;49.56
69245;BME280;56357;52.304;4.870;2024-01-27T11:01:51;103774.31;;;19.92;49.32
69245;BME280;56357;52.304;4.870;2024-01-27T11:04:19;103777.22;;;20.10;48.94
69245;BME280;56357;52.304;4.870;2024-01-27T11:06:47;103770.44;;;19.80;49.48
69245;BME280;56357;52.304;4.870;2024-01-27T11:09:14;103780.34;;;19.95;49.02
69245;BME280;56357;52.304;4.870;2024-01-27T11:11:42;103781.22;;;19.89;48.82
69245;BME280;56357;52.304;4.870;2024-01-27T11:14:10;103778.19;;;19.91;48.98
69245;BME280;56357;52.304;4.870;2024-01-27T11:16:36;103775.44;;;19.78;49.75
69245;BME280;56357;52.304;4.870;2024-01-27T11:19:10;103781.94;;;19.78;50.04
69245;BME280;56357;52.304;4.870;2024-01-27T11:21:37;103775.25;;;20.24;49.24
69245;BME280;56357;52.304;4.870;2024-01-27T11:24:15;103767.91;;;20.23;49.42
69245;BME280;56357;52.304;4.870;2024-01-27T11:26:42;103771.59;;;20.10;49.52
69245;BME280;56357;52.304;4.870;2024-01-27T11:29:09;103769.75;;;19.91;50.43
69245;BME280;56357;52.304;4.870;2024-01-27T11:31:44;103773.53;;;20.16;49.44
69245;BME280;56357;52.304;4.870;2024-01-27T11:34:11;103763.88;;;19.92;49.80
69245;BME280;56357;52.304;4.870;2024-01-27T11:36:41;103761.38;;;19.78;50.20
69245;BME280;56357;52.304;4.870;2024-01-27T11:39:23;103752.44;;;19.94;49.36
69245;BME280;56357;52.304;4.870;2024-01-27T11:41:51;103758.22;;;20.05;49.44
69245;BME280;56357;52.304;4.870;2024-01-27T11:44:18;103763.88;;;19.92;49.35
69245;BME280;56357;52.304;4.870;2024-01-27T11:46:45;103753.09;;;19.89;49.52
69245;BME280;56357;52.304;4.870;2024-01-27T11:49:15;103749.06;;;19.66;49.67
69245;BME280;56357;52.304;4.870;2024-01-27T11:51:42;103753.19;;;19.63;49.52
69245;BME280;56357;52.304;4.870;2024-01-27T11:54:09;103753.41;;;19.62;50.08
69245;BME280;56357;52.304;4.870;2024-01-27T11:56:35;103752.47;;;19.87;49.00
69245;BME280;56357;52.304;4.870;2024-01-27T11:59:02;103747.72;;;19.81;49.60
69245;BME280;56357;52.304;4.870;2024-01-27T12:01:28;103746.00;;;19.80;49.52
69245;BME280;56357;52.304;4.870;2024-01-27T12:03:55;103732.88;;;19.61;50.23
69245;BME280;56357;52.304;4.870;2024-01-27T12:06:22;103733.72;;;19.68;50.28
69245;BME280;56357;52.304;4.870;2024-01-27T12:08:48;103733.41;;;19.89;49.91
69245;BME280;56357;52.304;4.870;2024-01-27T12:11:15;103732.53;;;19.95;49.90
69245;BME280;56357;52.304;4.870;2024-01-27T12:13:41;103730.28;;;20.04;49.28
69245;BME280;56357;52.304;4.870;2024-01-27T12:16:08;103732.84;;;20.19;49.82
69245;BME280;56357;52.304;4.870;2024-01-27T12:18:35;103730.44;;;20.16;49.81
69245;BME280;56357;52.304;4.870;2024-01-27T12:21:02;103739.34;;;20.13;49.65
69245;BME280;56357;52.304;4.870;2024-01-27T12:23:28;103741.94;;;20.07;49.73
69245;BME280;56357;52.304;4.870;2024-01-27T12:25:55;103738.06;;;20.46;49.52
69245;BME280;56357;52.304;4.870;2024-01-27T12:28:22;103732.25;;;20.48;49.39
69245;BME280;56357;52.304;4.870;2024-01-27T12:30:52;103724.75;;;20.29;49.79
69245;BME280;56357;52.304;4.870;2024-01-27T12:33:19;103732.91;;;20.43;49.80
69245;BME280;56357;52.304;4.870;2024-01-27T12:35:49;103737.28;;;20.33;49.96
69245;BME280;56357;52.304;4.870;2024-01-27T12:38:19;103728.84;;;20.64;49.50
69245;BME280;56357;52.304;4.870;2024-01-27T12:40:45;103725.91;;;20.52;49.74
69245;BME280;56357;52.304;4.870;2024-01-27T12:43:11;103739.41;;;20.44;49.68
69245;BME280;56357;52.304;4.870;2024-01-27T12:45:38;103726.31;;;20.56;49.64
69245;BME280;56357;52.304;4.870;2024-01-27T12:48:04;103716.31;;;20.29;50.68